KFRM

Fairmont Municipal Airport

Fairmont, Minnesota, USA
METAR KFRM 221656Z AUTO 14006KT 10SM CLR 21/16 A3005 RMK AO2 SLP177 T02110156
Observed Flight Rules
May-22 @ 16:56 UTC (59 minutes ago) Visual Flight Rules
Wind Visibility Clouds
140° at 6 knots 10 miles
  • Clear skies
Temperatures Readings
Current 21°C / 70°F
Dewpoint 16°C / 61°F
Humidity 73%
Altimeter 30.05" Hg
Pressure 1017.7 hPa
Elevation 354
METAR KFRM 221656Z AUTO 14006KT 10SM CLR 21/16 A3005 RMK AO2 SLP177 T02110156
Observed Flight Rules
May-22 @ 16:56 UTC
(59 minutes ago)
VFR
Wind Visibility
140° at 6 knots 10 miles
Clouds
  • Clear skies
Temperature Dewpoint
21°C / 70°F 16°C / 61°F
Humidity Altimeter Pressure
73% 30.05" Hg 1017.7 hPa